Indianapolis International Airport
KIND : rendu visible

Aérodrome :











RETROUVEZ-NOUS SUR...

 
LOGIN :

S'inscrire | Disclaimer

   EN    FR    IT 

 









Légende :    VFR   VFR Marginal   IFR   IFR Intensif   IFR Très Intensif
Visi : 
Plafond : 
>= 8 km
>= 3000ft
5 à 8 km
1000 à 3000 ft
1500m à 5 km
500 à 1000 ft
800 à 1500m
200 à 500 ft
< 800m
< 200 ft
Symboles :   Orages  Brouillard  Fortes neiges  Fortes précipitations  Vent > 20 kt






- Altitude de l'aérodrome : 797 ft
- Code IATA : IND


KIND - Indianapolis International

DERNIER METAR :
  • 230054Z 16007KT 10SM BKN160 OVC240 01/M07 A3022 RMK AO2 SLP244 T00061072

METARs EXPIRÉS :
  • 222354Z 14008KT 10SM BKN170 OVC250 00/M07 A3023 RMK AO2 SLP246 T00001067 10022 21011 56006
  • 222254Z 13006KT 10SM BKN190 BKN250 01/M07 A3024 RMK AO2 SLP249 T00061067

TAF KIND
Valide du 23 à 00h jusqu'au 24 à 06h UTC


222323Z 2300/2406 13006KT P6SM BKN200
FM231500 16006KT P6SM OVC060
FM240000 13006KT 6SM -SNRA OVC050
FM240200 12007KT 6SM -SNRA OVC025
FM240300 12007KT 5SM -SNRA OVC014
FM240500 11007KT 4SM -SNRA OVC010



MET'MAP, la Météo Aéronautique d'un coup d'oeil ! - Copyright ORBIFLY Décembre 2007 - Disclaimer

ORBIFLY MET'MAP TEAM :

Programmation & Développement : Alexandra Zaïnal
Sur une idée originale de : Baudouin d'Aumeries
Assistance à la programmation : Marc-Olivier Méhu
Soutien technique & logistique : Manuel Goepfert

Contact : metmap@orbifly.com




SOURCES & CREDITS :

   NOAA       Earth
Advisory